VIV33OT MMMX-MMUN
Flight info
| Callsign | VIV33OT |
|---|---|
| Flight time | N/A |
| Altitude | 39000 |
| Route | TEVET UT108 VER UJ24 GOTAS UT65 PAULE PAULE3G MMUN |
| Aircraft | A320/M-SDE2E3FGHIJ1RWXY/C |
Departure
| Time | N/A |
|---|---|
| Airport | Mexico City Benito Juárez International Airport (MMMX) |
Arrival
| Time | 2026-05-03 21:22 |
|---|---|
| Airport | Cancún International Airport (MMUN) |
| Time | Latitude | Longitude | Altitude | Speed | Heading |
|---|---|---|---|---|---|
| 2026-05-03 20:15 | 19.26109 | -93.91998 | 39020 ft | 486 kts | 93° |
| 2026-05-03 20:15 | 19.25874 | -93.84851 | 39016 ft | 485 kts | 93° |
| 2026-05-03 20:16 | 19.25638 | -93.77760 | 39017 ft | 485 kts | 93° |
| 2026-05-03 20:16 | 19.25398 | -93.70631 | 39015 ft | 485 kts | 93° |
| 2026-05-03 20:17 | 19.25155 | -93.63507 | 39010 ft | 484 kts | 93° |
| 2026-05-03 20:17 | 19.24910 | -93.56385 | 39006 ft | 484 kts | 93° |
| 2026-05-03 20:18 | 19.24662 | -93.49264 | 39001 ft | 484 kts | 93° |
| 2026-05-03 20:18 | 19.24411 | -93.42149 | 39002 ft | 484 kts | 93° |
| 2026-05-03 20:19 | 19.24158 | -93.35036 | 39001 ft | 484 kts | 93° |
| 2026-05-03 20:19 | 19.23901 | -93.27917 | 38999 ft | 484 kts | 93° |
| 2026-05-03 20:20 | 19.23642 | -93.20793 | 39001 ft | 484 kts | 93° |
| 2026-05-03 20:20 | 19.23382 | -93.13717 | 38998 ft | 484 kts | 93° |
| 2026-05-03 20:21 | 19.23118 | -93.06586 | 39000 ft | 485 kts | 93° |
| 2026-05-03 20:21 | 19.22850 | -92.99456 | 38992 ft | 485 kts | 93° |
| 2026-05-03 20:22 | 19.22580 | -92.92320 | 38994 ft | 486 kts | 93° |
| 2026-05-03 20:22 | 19.22306 | -92.85175 | 38997 ft | 486 kts | 93° |
| 2026-05-03 20:23 | 19.22030 | -92.78029 | 39001 ft | 486 kts | 93° |
| 2026-05-03 20:23 | 19.21752 | -92.70878 | 38999 ft | 487 kts | 93° |
| 2026-05-03 20:24 | 19.21818 | -92.63715 | 38993 ft | 487 kts | 89° |
| 2026-05-03 20:24 | 19.22001 | -92.56542 | 38995 ft | 488 kts | 89° |
| 2026-05-03 20:25 | 19.22173 | -92.49365 | 38995 ft | 488 kts | 89° |
| 2026-05-03 20:25 | 19.22340 | -92.42187 | 38990 ft | 488 kts | 89° |
| 2026-05-03 20:26 | 19.22502 | -92.35050 | 38991 ft | 488 kts | 89° |
| 2026-05-03 20:26 | 19.22662 | -92.27864 | 38990 ft | 489 kts | 89° |
| 2026-05-03 20:27 | 19.22820 | -92.20673 | 38993 ft | 489 kts | 89° |
| 2026-05-03 20:27 | 19.22975 | -92.13472 | 38987 ft | 490 kts | 90° |
| 2026-05-03 20:28 | 19.23128 | -92.06274 | 38987 ft | 490 kts | 90° |
| 2026-05-03 20:28 | 19.23277 | -91.99056 | 38985 ft | 491 kts | 90° |
| 2026-05-03 20:29 | 19.23425 | -91.91834 | 38979 ft | 491 kts | 90° |
| 2026-05-03 20:29 | 19.23569 | -91.84602 | 38980 ft | 492 kts | 90° |
| 2026-05-03 20:30 | 19.23711 | -91.77353 | 38978 ft | 493 kts | 90° |
| 2026-05-03 20:30 | 19.23851 | -91.70094 | 38982 ft | 494 kts | 90° |
| 2026-05-03 20:31 | 19.23987 | -91.62820 | 38984 ft | 495 kts | 90° |
| 2026-05-03 20:31 | 19.24121 | -91.55536 | 38987 ft | 496 kts | 90° |
| 2026-05-03 20:32 | 19.24252 | -91.48285 | 38988 ft | 496 kts | 90° |
| 2026-05-03 20:32 | 19.24381 | -91.40981 | 38989 ft | 497 kts | 90° |
| 2026-05-03 20:33 | 19.24507 | -91.33663 | 38985 ft | 497 kts | 90° |
| 2026-05-03 20:33 | 19.24630 | -91.26338 | 38986 ft | 498 kts | 90° |
| 2026-05-03 20:34 | 19.24750 | -91.19013 | 38989 ft | 498 kts | 90° |
| 2026-05-03 20:34 | 19.24869 | -91.11676 | 38990 ft | 498 kts | 90° |
| 2026-05-03 20:35 | 19.24984 | -91.04344 | 38993 ft | 498 kts | 90° |
| 2026-05-03 20:35 | 19.25095 | -90.97059 | 38987 ft | 498 kts | 90° |
| 2026-05-03 20:36 | 19.25205 | -90.89726 | 38982 ft | 498 kts | 90° |
| 2026-05-03 20:36 | 19.25311 | -90.82398 | 38980 ft | 498 kts | 90° |
| 2026-05-03 20:37 | 19.25415 | -90.75078 | 38977 ft | 498 kts | 90° |
| 2026-05-03 20:37 | 19.25515 | -90.67758 | 38976 ft | 497 kts | 90° |
| 2026-05-03 20:38 | 19.25613 | -90.60440 | 38977 ft | 497 kts | 90° |
| 2026-05-03 20:38 | 19.25707 | -90.53127 | 38968 ft | 497 kts | 90° |
| 2026-05-03 20:39 | 19.25799 | -90.45815 | 38965 ft | 497 kts | 90° |
| 2026-05-03 20:39 | 19.25887 | -90.38501 | 38967 ft | 497 kts | 90° |
| 2026-05-03 20:40 | 19.25956 | -90.31183 | 38962 ft | 497 kts | 92° |
| 2026-05-03 20:40 | 19.25790 | -90.23877 | 38953 ft | 497 kts | 93° |
| 2026-05-03 20:41 | 19.25627 | -90.17800 | 38948 ft | 497 kts | 93° |
| 2026-05-03 20:41 | 19.25457 | -90.10481 | 38951 ft | 498 kts | 92° |
| 2026-05-03 20:42 | 19.25295 | -90.03149 | 38943 ft | 498 kts | 92° |
| 2026-05-03 20:42 | 19.25131 | -89.95818 | 38943 ft | 499 kts | 92° |
| 2026-05-03 20:43 | 19.24964 | -89.88476 | 38942 ft | 499 kts | 93° |
| 2026-05-03 20:43 | 19.24793 | -89.81124 | 38942 ft | 500 kts | 93° |
| 2026-05-03 20:44 | 19.24619 | -89.73759 | 38945 ft | 501 kts | 93° |
| 2026-05-03 20:44 | 19.24441 | -89.66381 | 38945 ft | 502 kts | 93° |
| 2026-05-03 20:45 | 19.24261 | -89.58985 | 38941 ft | 503 kts | 93° |
| 2026-05-03 20:45 | 19.24696 | -89.51599 | 38945 ft | 505 kts | 81° |
| 2026-05-03 20:46 | 19.26368 | -89.44424 | 38944 ft | 506 kts | 73° |
| 2026-05-03 20:46 | 19.28359 | -89.37278 | 38947 ft | 506 kts | 73° |
| 2026-05-03 20:47 | 19.30336 | -89.30126 | 38945 ft | 507 kts | 73° |
| 2026-05-03 20:47 | 19.32313 | -89.22964 | 38943 ft | 507 kts | 73° |
| 2026-05-03 20:48 | 19.34291 | -89.15794 | 38938 ft | 507 kts | 73° |
| 2026-05-03 20:48 | 19.36266 | -89.08623 | 38942 ft | 507 kts | 73° |
| 2026-05-03 20:49 | 19.38240 | -89.01447 | 38941 ft | 508 kts | 73° |
| 2026-05-03 20:49 | 19.40212 | -88.94265 | 38939 ft | 508 kts | 73° |
| 2026-05-03 20:50 | 19.42183 | -88.87079 | 38936 ft | 508 kts | 73° |
| 2026-05-03 20:50 | 19.44151 | -88.79891 | 38930 ft | 508 kts | 73° |
| 2026-05-03 20:51 | 19.46119 | -88.72691 | 38926 ft | 508 kts | 73° |
| 2026-05-03 20:51 | 19.48070 | -88.65540 | 38931 ft | 509 kts | 73° |
| 2026-05-03 20:52 | 19.50033 | -88.58333 | 38929 ft | 509 kts | 73° |
| 2026-05-03 20:52 | 19.51994 | -88.51119 | 38931 ft | 509 kts | 73° |
| 2026-05-03 20:53 | 19.53953 | -88.43906 | 38929 ft | 510 kts | 73° |
| 2026-05-03 20:53 | 19.55913 | -88.36672 | 38831 ft | 511 kts | 73° |
| 2026-05-03 20:53 | 19.56893 | -88.33049 | 38613 ft | 511 kts | 73° |
| 2026-05-03 20:54 | 19.57871 | -88.29431 | 38615 ft | 511 kts | 73° |
| 2026-05-03 20:54 | 19.60806 | -88.18555 | 38750 ft | 511 kts | 73° |
| 2026-05-03 20:55 | 19.62760 | -88.11301 | 38836 ft | 511 kts | 73° |
| 2026-05-03 20:55 | 19.63736 | -88.07676 | 38729 ft | 512 kts | 73° |
| 2026-05-03 20:55 | 19.64713 | -88.04038 | 38321 ft | 513 kts | 73° |
| 2026-05-03 20:56 | 19.65689 | -88.00406 | 37682 ft | 512 kts | 73° |
| 2026-05-03 20:56 | 19.66662 | -87.96776 | 37043 ft | 510 kts | 73° |
| 2026-05-03 20:56 | 19.67631 | -87.93162 | 36423 ft | 507 kts | 73° |
| 2026-05-03 20:56 | 19.68590 | -87.89578 | 35829 ft | 505 kts | 73° |
| 2026-05-03 20:57 | 19.69548 | -87.86000 | 35229 ft | 502 kts | 73° |
| 2026-05-03 20:57 | 19.70499 | -87.82442 | 34655 ft | 501 kts | 73° |
| 2026-05-03 20:57 | 19.71450 | -87.78881 | 34091 ft | 501 kts | 73° |
| 2026-05-03 20:57 | 19.72401 | -87.75319 | 33477 ft | 502 kts | 73° |
| 2026-05-03 20:58 | 19.73354 | -87.71748 | 32851 ft | 504 kts | 73° |
| 2026-05-03 20:58 | 19.74313 | -87.68150 | 32235 ft | 506 kts | 73° |
| 2026-05-03 20:58 | 19.75273 | -87.64548 | 31637 ft | 508 kts | 74° |
| 2026-05-03 20:58 | 19.76234 | -87.60933 | 31049 ft | 509 kts | 74° |
| 2026-05-03 20:59 | 19.77182 | -87.57365 | 30482 ft | 508 kts | 74° |
| 2026-05-03 20:59 | 19.78138 | -87.53766 | 29896 ft | 505 kts | 74° |
| 2026-05-03 20:59 | 19.79084 | -87.50200 | 29241 ft | 500 kts | 74° |
| 2026-05-03 20:59 | 19.80021 | -87.46662 | 28601 ft | 495 kts | 74° |
| 2026-05-03 21:00 | 19.81099 | -87.43222 | 27962 ft | 489 kts | 67° |
| 2026-05-03 21:00 | 19.82035 | -87.40998 | 27542 ft | 485 kts | 63° |
| 2026-05-03 21:00 | 19.84288 | -87.36962 | 26742 ft | 477 kts | 53° |
| 2026-05-03 21:00 | 19.86249 | -87.34130 | 26146 ft | 472 kts | 52° |
| 2026-05-03 21:01 | 19.88184 | -87.31336 | 25570 ft | 467 kts | 52° |
| 2026-05-03 21:01 | 19.90099 | -87.28561 | 24995 ft | 463 kts | 52° |
| 2026-05-03 21:01 | 19.91994 | -87.25812 | 24440 ft | 458 kts | 52° |
| 2026-05-03 21:01 | 19.93859 | -87.23106 | 23964 ft | 447 kts | 52° |
| 2026-05-03 21:02 | 19.95660 | -87.20492 | 23726 ft | 429 kts | 52° |
| 2026-05-03 21:02 | 19.97374 | -87.18002 | 23679 ft | 406 kts | 52° |
| 2026-05-03 21:02 | 19.98994 | -87.15647 | 23667 ft | 384 kts | 52° |
| 2026-05-03 21:02 | 20.00544 | -87.13396 | 23667 ft | 376 kts | 52° |
| 2026-05-03 21:03 | 20.02145 | -87.11150 | 23667 ft | 383 kts | 45° |
| 2026-05-03 21:03 | 20.04158 | -87.09347 | 23526 ft | 376 kts | 27° |
| 2026-05-03 21:03 | 20.06531 | -87.08328 | 23057 ft | 363 kts | 8° |
| 2026-05-03 21:03 | 20.09021 | -87.08165 | 22277 ft | 359 kts | 355° |
| 2026-05-03 21:04 | 20.11536 | -87.08292 | 21415 ft | 364 kts | 354° |
| 2026-05-03 21:04 | 20.14065 | -87.08428 | 20717 ft | 364 kts | 354° |
| 2026-05-03 21:04 | 20.16582 | -87.08553 | 20129 ft | 361 kts | 355° |
| 2026-05-03 21:04 | 20.19079 | -87.08667 | 19550 ft | 358 kts | 355° |
| 2026-05-03 21:05 | 20.21556 | -87.08774 | 18989 ft | 355 kts | 355° |
| 2026-05-03 21:05 | 20.24012 | -87.08878 | 18431 ft | 352 kts | 355° |
| 2026-05-03 21:05 | 20.26452 | -87.08980 | 17822 ft | 350 kts | 355° |
| 2026-05-03 21:05 | 20.28874 | -87.09082 | 17197 ft | 347 kts | 355° |
| 2026-05-03 21:06 | 20.31273 | -87.09183 | 16580 ft | 344 kts | 356° |
| 2026-05-03 21:06 | 20.33662 | -87.09283 | 15980 ft | 342 kts | 356° |
| 2026-05-03 21:06 | 20.36032 | -87.09383 | 15396 ft | 339 kts | 356° |
| 2026-05-03 21:06 | 20.38382 | -87.09482 | 14824 ft | 338 kts | 356° |
| 2026-05-03 21:07 | 20.40731 | -87.09581 | 14249 ft | 337 kts | 356° |
| 2026-05-03 21:07 | 20.43068 | -87.09679 | 13679 ft | 336 kts | 356° |
| 2026-05-03 21:07 | 20.45400 | -87.09777 | 13044 ft | 334 kts | 356° |
| 2026-05-03 21:07 | 20.47692 | -87.09872 | 12431 ft | 332 kts | 356° |
| 2026-05-03 21:08 | 20.49987 | -87.09969 | 11826 ft | 329 kts | 356° |
| 2026-05-03 21:08 | 20.52265 | -87.10065 | 11228 ft | 326 kts | 356° |
| 2026-05-03 21:08 | 20.54528 | -87.10160 | 10659 ft | 324 kts | 356° |
| 2026-05-03 21:08 | 20.56776 | -87.10255 | 10087 ft | 323 kts | 356° |
| 2026-05-03 21:09 | 20.59032 | -87.10349 | 9494 ft | 325 kts | 356° |
| 2026-05-03 21:09 | 20.61299 | -87.10447 | 8858 ft | 326 kts | 357° |
| 2026-05-03 21:09 | 20.63551 | -87.10541 | 8280 ft | 322 kts | 356° |
| 2026-05-03 21:09 | 20.65766 | -87.10633 | 7693 ft | 316 kts | 356° |
| 2026-05-03 21:10 | 20.67942 | -87.10724 | 7125 ft | 310 kts | 356° |
| 2026-05-03 21:10 | 20.70081 | -87.10815 | 6563 ft | 305 kts | 357° |
| 2026-05-03 21:10 | 20.72188 | -87.10904 | 5992 ft | 301 kts | 357° |
| 2026-05-03 21:10 | 20.74268 | -87.10990 | 5414 ft | 297 kts | 357° |
| 2026-05-03 21:11 | 20.76318 | -87.11075 | 4833 ft | 293 kts | 357° |
| 2026-05-03 21:11 | 20.78344 | -87.11159 | 4251 ft | 290 kts | 357° |
| 2026-05-03 21:11 | 20.80348 | -87.11244 | 3677 ft | 287 kts | 357° |
| 2026-05-03 21:11 | 20.82329 | -87.11328 | 3200 ft | 281 kts | 358° |
| 2026-05-03 21:12 | 20.84226 | -87.11408 | 3022 ft | 263 kts | 358° |
| 2026-05-03 21:12 | 20.85985 | -87.11483 | 2977 ft | 242 kts | 358° |
| 2026-05-03 21:12 | 20.87626 | -87.11551 | 2983 ft | 236 kts | 358° |
| 2026-05-03 21:12 | 20.89272 | -87.11621 | 2979 ft | 236 kts | 358° |
| 2026-05-03 21:13 | 20.90912 | -87.11690 | 2980 ft | 237 kts | 358° |
| 2026-05-03 21:13 | 20.92554 | -87.11759 | 2984 ft | 236 kts | 358° |
| 2026-05-03 21:13 | 20.94196 | -87.11828 | 2987 ft | 236 kts | 358° |
| 2026-05-03 21:13 | 20.95837 | -87.11897 | 2985 ft | 236 kts | 358° |
| 2026-05-03 21:14 | 20.97456 | -87.11966 | 2980 ft | 227 kts | 358° |
| 2026-05-03 21:14 | 20.98978 | -87.12031 | 2985 ft | 212 kts | 358° |
| 2026-05-03 21:14 | 21.00452 | -87.12093 | 2981 ft | 211 kts | 358° |
| 2026-05-03 21:14 | 21.01913 | -87.12155 | 2995 ft | 211 kts | 358° |
| 2026-05-03 21:15 | 21.03361 | -87.12216 | 2989 ft | 205 kts | 358° |
| 2026-05-03 21:15 | 21.04781 | -87.12278 | 2999 ft | 205 kts | 358° |
| 2026-05-03 21:15 | 21.06206 | -87.12338 | 2989 ft | 205 kts | 358° |
| 2026-05-03 21:15 | 21.07625 | -87.12398 | 2983 ft | 203 kts | 358° |
| 2026-05-03 21:16 | 21.09008 | -87.12182 | 2983 ft | 203 kts | 26° |
| 2026-05-03 21:16 | 21.10212 | -87.11379 | 2985 ft | 203 kts | 34° |
| 2026-05-03 21:16 | 21.11373 | -87.10509 | 2986 ft | 203 kts | 36° |
| 2026-05-03 21:16 | 21.12498 | -87.09661 | 2993 ft | 192 kts | 35° |
| 2026-05-03 21:17 | 21.13598 | -87.08847 | 2987 ft | 194 kts | 35° |
| 2026-05-03 21:17 | 21.14336 | -87.08309 | 2991 ft | 194 kts | 34° |
| 2026-05-03 21:17 | 21.15730 | -87.07099 | 2979 ft | 193 kts | 52° |
| 2026-05-03 21:17 | 21.16170 | -87.05775 | 2991 ft | 192 kts | 91° |
| 2026-05-03 21:18 | 21.15769 | -87.04460 | 2999 ft | 191 kts | 122° |
| 2026-05-03 21:18 | 21.15041 | -87.03293 | 2990 ft | 188 kts | 126° |
| 2026-05-03 21:18 | 21.14281 | -87.02146 | 2993 ft | 186 kts | 126° |
| 2026-05-03 21:18 | 21.13534 | -87.01006 | 3036 ft | 188 kts | 125° |
| 2026-05-03 21:19 | 21.12787 | -86.99847 | 2748 ft | 188 kts | 124° |
| 2026-05-03 21:19 | 21.12080 | -86.98702 | 2377 ft | 177 kts | 123° |
| 2026-05-03 21:19 | 21.11428 | -86.97582 | 2141 ft | 179 kts | 121° |
| 2026-05-03 21:19 | 21.10817 | -86.96468 | 1937 ft | 172 kts | 119° |
| 2026-05-03 21:20 | 21.10170 | -86.95381 | 1725 ft | 173 kts | 127° |
| 2026-05-03 21:20 | 21.09412 | -86.94381 | 1455 ft | 173 kts | 129° |
| 2026-05-03 21:20 | 21.08734 | -86.93325 | 1064 ft | 173 kts | 119° |
| 2026-05-03 21:20 | 21.08121 | -86.92259 | 930 ft | 169 kts | 131° |
| 2026-05-03 21:21 | 21.07401 | -86.91262 | 807 ft | 168 kts | 118° |
| 2026-05-03 21:21 | 21.06767 | -86.90217 | 610 ft | 166 kts | 126° |
| 2026-05-03 21:21 | 21.06107 | -86.89188 | 327 ft | 165 kts | 123° |
| 2026-05-03 21:21 | 21.05477 | -86.88150 | 116 ft | 171 kts | 123° |
| 2026-05-03 21:22 | 21.04852 | -86.87147 | 38 ft | 144 kts | 124° |
| 2026-05-03 21:22 | 21.04488 | -86.86563 | 38 ft | 36 kts | 125° |
| 2026-05-03 21:22 | 21.04344 | -86.86415 | 38 ft | 28 kts | 150° |
| 2026-05-03 21:22 | 21.04176 | -86.86327 | 38 ft | 26 kts | 154° |
| 2026-05-03 21:23 | 21.04089 | -86.86257 | 38 ft | 14 kts | 125° |
| 2026-05-03 21:23 | 21.04031 | -86.86229 | 38 ft | 9 kts | 194° |
| 2026-05-03 21:23 | 21.03993 | -86.86251 | 41 ft | 4 kts | 214° |
| 2026-05-03 21:23 | 21.03981 | -86.86259 | 42 ft | 4 kts | 212° |
| 2026-05-03 21:24 | 21.03899 | -86.86316 | 49 ft | 17 kts | 213° |
| 2026-05-03 21:24 | 21.03801 | -86.86387 | 50 ft | 18 kts | 214° |
| 2026-05-03 21:24 | 21.03698 | -86.86461 | 50 ft | 18 kts | 214° |
| 2026-05-03 21:24 | 21.03583 | -86.86542 | 41 ft | 22 kts | 212° |
| 2026-05-03 21:25 | 21.03480 | -86.86618 | 37 ft | 18 kts | 213° |
| 2026-05-03 21:25 | 21.03378 | -86.86688 | 38 ft | 17 kts | 213° |
| 2026-05-03 21:25 | 21.03355 | -86.86770 | 37 ft | 12 kts | 302° |
| 2026-05-03 21:25 | 21.03403 | -86.86843 | 38 ft | 12 kts | 304° |
| 2026-05-03 21:26 | 21.03449 | -86.86879 | 38 ft | 7 kts | 359° |
| 2026-05-03 21:26 | 21.03502 | -86.86867 | 38 ft | 8 kts | 10° |
| 2026-05-03 21:26 | 21.03519 | -86.86864 | 38 ft | 1 kts | 10° |
| 2026-05-03 21:26 | 21.03534 | -86.86861 | 38 ft | 3 kts | 11° |
| 2026-05-03 21:27 | 21.03536 | -86.86861 | 38 ft | 0 kts | 11° |